Time;durP1;ratioP1;P1;durP2;ratioP2;P2;SDS_P1;SDS_P2;PMS_P1;PMS_P2;Temp;Humidity;BMP_temperature;BMP_pressure;BME280_temperature;BME280_humidity;BME280_pressure;Samples;Min_cycle;Max_cycle;Signal;HPM_P1;HPM_P2
2021/08/29 00:01:15;;;;;;;1.90;1.40;;;16.00;97.20;;;;;;5043341;28;20447;-78
2021/08/29 00:03:43;;;;;;;2.30;2.07;;;16.00;96.60;;;;;;5048479;28;20993;-77
2021/08/29 00:06:13;;;;;;;2.40;1.97;;;16.10;89.80;;;;;;5044348;28;20581;-78
2021/08/29 00:08:41;;;;;;;2.10;1.70;;;16.10;99.90;;;;;;5046945;28;20502;-78
2021/08/29 00:11:09;;;;;;;2.23;2.03;;;16.00;99.90;;;;;;5044362;28;20473;-78
2021/08/29 00:13:38;;;;;;;2.00;1.83;;;16.00;99.90;;;;;;5044936;28;20447;-78
2021/08/29 00:16:06;;;;;;;4.73;2.10;;;16.10;99.90;;;;;;5042052;28;20470;-79
2021/08/29 00:18:34;;;;;;;2.10;1.93;;;16.10;95.10;;;;;;5045587;28;20456;-75
2021/08/29 00:21:02;;;;;;;2.00;1.80;;;16.00;99.90;;;;;;5045025;28;20958;-75
2021/08/29 00:23:32;;;;;;;3.20;2.50;;;16.00;99.90;;;;;;5045374;28;21002;-75
2021/08/29 00:26:00;;;;;;;2.43;2.23;;;16.10;99.90;;;;;;5044920;28;21033;-74
2021/08/29 00:28:28;;;;;;;2.27;2.10;;;16.10;81.40;;;;;;5045880;28;20514;-75
2021/08/29 00:30:56;;;;;;;4.17;2.30;;;16.10;58.60;;;;;;5044162;28;20462;-75
2021/08/29 00:33:24;;;;;;;3.97;2.33;;;16.10;99.90;;;;;;5048090;28;20454;-75
2021/08/29 00:35:53;;;;;;;2.53;2.20;;;16.10;99.90;;;;;;5044260;28;20807;-75
2021/08/29 00:38:21;;;;;;;1.77;1.67;;;16.10;99.90;;;;;;5046075;28;20513;-75
2021/08/29 00:40:51;;;;;;;2.17;1.63;;;16.10;99.90;;;;;;5040809;28;20451;-75
2021/08/29 00:43:21;;;;;;;1.80;1.70;;;16.10;56.30;;;;;;5041061;28;20467;-75
2021/08/29 00:45:50;;;;;;;3.60;2.33;;;16.10;88.10;;;;;;5040835;28;20451;-75
2021/08/29 00:48:18;;;;;;;2.20;2.00;;;16.00;99.90;;;;;;5041913;28;20566;-75
2021/08/29 00:50:47;;;;;;;1.70;1.60;;;16.00;99.90;;;;;;5046402;28;20532;-76
2021/08/29 00:53:17;;;;;;;1.67;1.57;;;16.00;99.90;;;;;;5049614;28;20566;-75
2021/08/29 00:55:45;;;;;;;2.33;2.10;;;16.10;87.30;;;;;;5050252;28;20513;-75
2021/08/29 00:58:15;;;;;;;2.70;1.93;;;16.10;34.60;;;;;;5050732;28;20459;-75
2021/08/29 01:00:44;;;;;;;2.37;2.17;;;16.00;99.90;;;;;;5048800;28;21028;-75
2021/08/29 01:03:17;;;;;;;2.13;1.93;;;16.00;99.90;;;;;;5042777;28;20455;-75
2021/08/29 01:05:51;;;;;;;3.10;2.77;;;16.00;99.90;;;;;;5049042;28;20458;-75
2021/08/29 01:08:19;;;;;;;2.73;2.23;;;15.90;99.90;;;;;;5050696;28;20483;-76
2021/08/29 01:10:53;;;;;;;2.43;2.17;;;15.90;99.90;;;;;;5048185;28;20451;-75
2021/08/29 01:13:28;;;;;;;3.93;2.33;;;15.90;99.90;;;;;;5050681;28;20486;-73
2021/08/29 01:16:01;;;;;;;2.60;2.40;;;15.80;99.90;;;;;;5049027;28;20946;-75
2021/08/29 01:18:31;;;;;;;1.80;1.60;;;15.80;99.90;;;;;;5046758;28;20525;-76
2021/08/29 01:21:03;;;;;;;2.00;1.90;;;15.90;99.90;;;;;;5041953;28;20463;-75
2021/08/29 01:23:33;;;;;;;2.40;1.83;;;15.90;99.90;;;;;;5047213;28;20480;-76
2021/08/29 01:26:09;;;;;;;2.37;1.77;;;15.90;99.90;;;;;;5049438;28;20460;-75
2021/08/29 01:28:50;;;;;;;2.67;2.10;;;16.00;99.90;;;;;;5049572;28;20489;-76
2021/08/29 01:31:20;;;;;;;2.67;2.33;;;16.10;99.90;;;;;;5048726;28;20972;-75
2021/08/29 01:33:49;;;;;;;3.20;1.80;;;16.20;99.90;;;;;;5049310;28;20508;-75
2021/08/29 01:36:18;;;;;;;1.70;1.60;;;16.20;99.90;;;;;;5049467;28;20485;-75
2021/08/29 01:38:48;;;;;;;2.40;2.13;;;16.20;99.90;;;;;;5046626;28;20497;-75
2021/08/29 01:41:20;;;;;;;2.53;2.33;;;16.20;99.90;;;;;;5047358;28;21025;-75
2021/08/29 01:43:50;;;;;;;3.37;2.40;;;16.10;99.90;;;;;;5043991;28;20472;-75
2021/08/29 01:46:19;;;;;;;3.20;2.10;;;16.10;99.90;;;;;;5045668;28;20471;-75
2021/08/29 01:48:47;;;;;;;2.70;2.50;;;16.00;99.90;;;;;;5047225;28;22541;-75
2021/08/29 01:51:16;;;;;;;2.23;2.03;;;16.00;99.90;;;;;;5037845;28;20513;-76
2021/08/29 01:53:45;;;;;;;2.70;2.10;;;16.00;99.90;;;;;;5047185;28;20823;-76
2021/08/29 01:56:13;;;;;;;2.93;2.33;;;15.90;99.90;;;;;;5049590;28;20510;-76
2021/08/29 01:58:41;;;;;;;2.10;1.90;;;16.00;99.90;;;;;;5048496;28;20459;-76
2021/08/29 02:01:13;;;;;;;2.40;2.20;;;15.90;99.90;;;;;;5046138;28;20446;-75
2021/08/29 02:03:44;;;;;;;2.53;2.33;;;16.00;99.90;;;;;;5036410;28;20465;-75
2021/08/29 02:06:14;;;;;;;1.90;1.80;;;15.90;99.90;;;;;;5045229;28;20453;-76
2021/08/29 02:08:52;;;;;;;2.63;2.43;;;16.00;99.90;;;;;;5047339;28;20455;-76
2021/08/29 02:11:22;;;;;;;2.60;2.40;;;16.00;1.00;;;;;;5045371;28;20455;-74
2021/08/29 02:13:56;;;;;;;6.07;4.57;;;15.90;1.00;;;;;;5046125;28;20485;-75
2021/08/29 02:16:26;;;;;;;3.03;2.70;;;16.00;99.90;;;;;;5043114;28;20455;-75
2021/08/29 02:18:56;;;;;;;2.67;2.10;;;16.00;99.90;;;;;;5046506;28;20460;-73
2021/08/29 02:21:27;;;;;;;2.80;2.10;;;16.10;99.90;;;;;;5042827;28;20451;-75
2021/08/29 02:23:57;;;;;;;3.10;2.53;;;16.10;1.00;;;;;;5045935;28;20478;-76
2021/08/29 02:26:26;;;;;;;2.17;1.90;;;16.10;1.00;;;;;;5047124;28;20493;-76
2021/08/29 02:28:55;;;;;;;3.10;2.30;;;16.10;99.90;;;;;;5048049;28;20467;-72
2021/08/29 02:31:24;;;;;;;2.30;2.10;;;16.00;1.00;;;;;;5044254;28;20451;-75
2021/08/29 02:33:53;;;;;;;2.30;2.10;;;16.00;1.00;;;;;;5049155;28;20521;-75
2021/08/29 02:36:22;;;;;;;3.40;1.90;;;16.10;99.90;;;;;;5047866;28;20871;-75
2021/08/29 02:38:52;;;;;;;2.63;2.37;;;16.10;99.90;;;;;;5045965;28;20616;-75
2021/08/29 02:41:21;;;;;;;3.00;2.50;;;16.10;99.90;;;;;;5043927;28;20452;-76
2021/08/29 02:43:50;;;;;;;3.10;2.37;;;16.10;1.00;;;;;;5044641;28;20461;-75
2021/08/29 02:46:18;;;;;;;3.43;2.20;;;16.10;1.00;;;;;;5043592;28;20447;-75
2021/08/29 02:48:48;;;;;;;3.00;2.10;;;16.10;1.00;;;;;;5047030;28;20450;-75
2021/08/29 02:51:18;;;;;;;3.30;2.00;;;16.00;1.00;;;;;;5043366;28;20451;-74
2021/08/29 02:53:47;;;;;;;3.00;1.90;;;15.90;1.00;;;;;;5044837;28;20464;-75
2021/08/29 02:56:16;;;;;;;2.20;2.00;;;15.80;15.20;;;;;;5045216;28;20451;-75
2021/08/29 02:58:46;;;;;;;2.60;2.40;;;15.90;79.30;;;;;;5045968;28;20444;-76
2021/08/29 03:01:14;;;;;;;4.30;2.30;;;15.90;57.20;;;;;;5039609;28;20489;-74
2021/08/29 03:03:44;;;;;;;2.70;1.70;;;15.90;17.30;;;;;;5049266;28;20514;-75
2021/08/29 03:06:13;;;;;;;2.40;2.20;;;15.80;12.30;;;;;;5047607;28;20439;-74
2021/08/29 03:08:43;;;;;;;2.83;2.60;;;15.70;99.90;;;;;;5047014;28;20462;-75
2021/08/29 03:11:11;;;;;;;2.10;2.00;;;15.70;99.90;;;;;;5045157;28;20489;-75
2021/08/29 03:13:40;;;;;;;2.20;2.10;;;15.70;99.90;;;;;;5045348;28;20451;-74
2021/08/29 03:16:09;;;;;;;3.73;2.60;;;15.70;99.90;;;;;;5044967;28;20540;-75
2021/08/29 03:18:37;;;;;;;3.83;2.10;;;15.80;1.00;;;;;;5046788;28;20436;-76
2021/08/29 03:21:06;;;;;;;2.00;1.73;;;15.90;99.90;;;;;;5042137;28;20501;-76
2021/08/29 03:23:35;;;;;;;2.60;2.40;;;16.00;99.90;;;;;;5048851;28;20455;-76
2021/08/29 03:26:05;;;;;;;2.73;2.40;;;16.00;99.90;;;;;;5042824;28;20459;-76
2021/08/29 03:28:33;;;;;;;4.00;2.67;;;15.90;99.90;;;;;;5044664;28;20478;-76
2021/08/29 03:31:01;;;;;;;2.30;2.10;;;15.90;99.90;;;;;;5041495;28;20846;-76
2021/08/29 03:33:30;;;;;;;3.07;2.87;;;15.80;99.90;;;;;;5048402;28;20479;-76
2021/08/29 03:35:59;;;;;;;3.27;2.93;;;15.90;99.90;;;;;;5048327;28;20799;-76
2021/08/29 03:38:28;;;;;;;3.63;3.20;;;15.90;99.90;;;;;;5047345;28;20484;-76
2021/08/29 03:40:58;;;;;;;2.83;2.63;;;15.80;99.90;;;;;;5043101;28;20471;-76
2021/08/29 03:43:28;;;;;;;2.07;1.90;;;15.80;99.90;;;;;;5044802;28;20804;-74
2021/08/29 03:45:57;;;;;;;2.57;2.30;;;15.80;1.00;;;;;;5041087;28;20455;-75
2021/08/29 03:48:26;;;;;;;2.50;2.30;;;15.90;1.00;;;;;;5045286;28;20486;-75
2021/08/29 03:50:54;;;;;;;2.53;2.33;;;15.90;1.00;;;;;;5045392;28;20525;-76
2021/08/29 03:53:24;;;;;;;2.10;2.00;;;15.90;1.00;;;;;;5043825;28;20460;-74
2021/08/29 03:55:52;;;;;;;2.30;2.10;;;15.90;1.00;;;;;;5043838;28;20523;-76
2021/08/29 03:58:21;;;;;;;3.50;3.20;;;15.90;1.00;;;;;;5048011;28;20530;-75
2021/08/29 04:00:51;;;;;;;3.27;2.57;;;16.00;99.90;;;;;;5043318;28;20448;-75
2021/08/29 04:03:20;;;;;;;2.83;2.63;;;15.80;1.00;;;;;;5047592;28;20486;-76
2021/08/29 04:05:49;;;;;;;3.07;2.77;;;15.70;90.20;;;;;;5048090;28;20458;-75
2021/08/29 04:08:20;;;;;;;2.87;2.20;;;15.70;99.90;;;;;;5046008;28;20507;-75
2021/08/29 04:10:49;;;;;;;2.57;2.20;;;15.70;27.70;;;;;;5044918;28;20548;-76
2021/08/29 04:13:18;;;;;;;3.00;2.63;;;15.80;1.00;;;;;;5043118;28;20443;-75
2021/08/29 04:15:47;;;;;;;2.90;2.13;;;15.90;99.90;;;;;;5044146;28;20476;-75
2021/08/29 04:18:18;;;;;;;2.43;2.33;;;15.90;1.00;;;;;;5039857;28;20447;-75
2021/08/29 04:20:47;;;;;;;3.10;2.80;;;15.80;1.00;;;;;;5041728;28;20497;-73
2021/08/29 04:23:15;;;;;;;3.23;2.93;;;15.90;1.00;;;;;;5046155;28;20524;-74
2021/08/29 04:25:45;;;;;;;2.43;2.23;;;15.80;1.00;;;;;;5048043;28;20527;-75
2021/08/29 04:28:13;;;;;;;3.23;2.93;;;16.00;1.00;;;;;;5042255;28;20452;-75
2021/08/29 04:30:42;;;;;;;2.70;2.17;;;16.10;99.90;;;;;;5046572;28;20493;-76
2021/08/29 04:33:10;;;;;;;4.67;2.27;;;16.10;99.90;;;;;;5049912;28;20534;-75
2021/08/29 04:35:40;;;;;;;2.43;2.23;;;16.10;99.90;;;;;;5051669;28;20466;-75
2021/08/29 04:38:08;;;;;;;2.80;2.30;;;15.90;51.50;;;;;;5046855;28;20460;-75
2021/08/29 04:40:36;;;;;;;2.57;2.37;;;15.80;99.90;;;;;;5049664;28;20844;-75
2021/08/29 04:43:04;;;;;;;2.67;2.30;;;15.80;99.90;;;;;;5038637;28;20472;-75
2021/08/29 04:45:32;;;;;;;2.90;2.30;;;15.80;99.90;;;;;;5048632;28;20548;-75
2021/08/29 04:48:00;;;;;;;2.00;1.80;;;15.70;1.00;;;;;;5049695;28;20442;-74
2021/08/29 04:50:30;;;;;;;2.70;2.40;;;15.60;1.00;;;;;;5048145;28;20540;-75
2021/08/29 04:53:00;;;;;;;2.73;2.20;;;15.50;1.00;;;;;;5045565;28;20872;-76
2021/08/29 04:55:28;;;;;;;2.80;2.23;;;15.40;99.90;;;;;;5049348;28;20467;-75
2021/08/29 04:57:56;;;;;;;3.23;1.97;;;15.40;1.00;;;;;;5048373;28;20528;-75
2021/08/29 05:00:24;;;;;;;2.57;2.37;;;15.40;1.00;;;;;;5048127;28;20459;-77
2021/08/29 05:02:52;;;;;;;2.50;2.30;;;15.40;1.00;;;;;;5047752;28;20960;-76
2021/08/29 05:05:21;;;;;;;2.70;2.47;;;15.40;99.90;;;;;;5050938;28;20478;-76
2021/08/29 05:07:49;;;;;;;3.67;2.60;;;15.30;1.00;;;;;;5048203;28;20446;-75
2021/08/29 05:10:19;;;;;;;3.23;2.93;;;15.30;99.90;;;;;;5050673;28;20453;-75
2021/08/29 05:12:47;;;;;;;3.30;2.80;;;15.20;99.90;;;;;;5035807;28;20947;-76
2021/08/29 05:15:15;;;;;;;2.13;1.80;;;15.20;99.90;;;;;;5041427;28;20533;-75
2021/08/29 05:17:43;;;;;;;3.07;2.80;;;15.20;1.00;;;;;;5045216;28;20459;-75
2021/08/29 05:20:12;;;;;;;2.50;2.30;;;15.10;1.00;;;;;;5046706;28;20459;-75
2021/08/29 05:22:40;;;;;;;4.40;1.80;;;15.20;1.00;;;;;;5040007;28;20992;-75
2021/08/29 05:25:09;;;;;;;2.43;2.23;;;15.20;99.90;;;;;;5048607;28;20483;-74
2021/08/29 05:27:39;;;;;;;2.80;2.07;;;15.20;1.00;;;;;;5048837;28;20516;-76
2021/08/29 05:30:08;;;;;;;3.07;2.77;;;15.20;1.00;;;;;;5047440;28;20470;-76
2021/08/29 05:32:36;;;;;;;2.10;2.00;;;15.20;1.00;;;;;;5046378;28;20521;-75
2021/08/29 05:35:05;;;;;;;2.73;2.23;;;15.10;99.90;;;;;;5050013;28;20463;-76
2021/08/29 05:37:33;;;;;;;2.50;2.30;;;15.10;1.00;;;;;;5046975;28;20458;-76
2021/08/29 05:40:01;;;;;;;1.93;1.77;;;15.10;1.00;;;;;;5048923;28;20525;-76
2021/08/29 05:42:29;;;;;;;1.90;1.70;;;15.20;99.90;;;;;;5046044;28;20458;-75
2021/08/29 05:44:59;;;;;;;2.20;2.00;;;15.20;72.80;;;;;;5048376;28;20494;-77
2021/08/29 05:47:27;;;;;;;1.53;1.43;;;15.30;1.00;;;;;;5047959;28;20466;-76
2021/08/29 05:49:55;;;;;;;1.37;1.27;;;15.20;1.00;;;;;;5047318;28;20489;-76
2021/08/29 05:52:23;;;;;;;1.50;1.27;;;15.40;99.90;;;;;;5047827;28;20483;-74
2021/08/29 05:54:51;;;;;;;1.60;1.50;;;15.60;99.90;;;;;;5047816;28;20487;-75
2021/08/29 05:57:19;;;;;;;1.83;1.73;;;15.60;1.00;;;;;;5048207;28;21048;-74
2021/08/29 05:59:47;;;;;;;1.23;1.17;;;15.80;1.00;;;;;;5044136;28;20457;-74
2021/08/29 06:02:17;;;;;;;1.30;1.20;;;15.80;99.90;;;;;;5049169;28;20877;-74
2021/08/29 06:04:45;;;;;;;1.20;1.10;;;15.60;99.90;;;;;;5048700;28;20838;-75
2021/08/29 06:07:13;;;;;;;1.40;1.20;;;15.60;99.90;;;;;;5047726;28;20865;-72
2021/08/29 06:09:42;;;;;;;1.00;1.00;;;15.50;99.90;;;;;;5046153;28;20464;-83
2021/08/29 06:12:10;;;;;;;1.87;1.10;;;15.20;1.00;;;;;;5046882;28;20906;-80
2021/08/29 06:14:38;;;;;;;0.97;0.97;;;15.10;80.70;;;;;;5050602;28;21017;-79
2021/08/29 06:17:06;;;;;;;1.00;1.00;;;14.90;1.00;;;;;;5051287;28;20446;-80
2021/08/29 06:19:36;;;;;;;0.83;0.83;;;15.00;34.00;;;;;;5047744;28;20459;-81
2021/08/29 06:22:04;;;;;;;0.80;0.80;;;14.80;1.00;;;;;;5044990;28;21267;-79
2021/08/29 06:24:32;;;;;;;1.20;0.90;;;14.90;1.00;;;;;;5044105;28;20462;-80
2021/08/29 06:27:01;;;;;;;1.00;1.00;;;15.00;99.90;;;;;;5047394;28;20462;-81
2021/08/29 06:29:29;;;;;;;1.00;0.90;;;15.10;1.00;;;;;;5043682;28;20453;-80
2021/08/29 06:31:57;;;;;;;0.90;0.90;;;15.10;99.90;;;;;;5048995;28;20486;-81
2021/08/29 06:34:25;;;;;;;0.90;0.90;;;15.00;1.00;;;;;;5048068;28;20475;-81
2021/08/29 06:36:55;;;;;;;0.90;0.90;;;14.90;1.00;;;;;;5049182;28;21027;-80
2021/08/29 06:39:23;;;;;;;0.70;0.70;;;15.00;1.00;;;;;;5044888;28;20501;-80
2021/08/29 06:41:51;;;;;;;0.90;0.90;;;14.90;99.90;;;;;;5046500;28;20467;-80
2021/08/29 06:44:19;;;;;;;0.90;0.90;;;15.10;99.90;;;;;;5048757;28;20531;-81
2021/08/29 06:46:50;;;;;;;0.80;0.80;;;15.30;99.90;;;;;;5046697;28;20504;-79
2021/08/29 06:49:18;;;;;;;0.80;0.80;;;15.50;1.00;;;;;;5041984;28;20443;-80
2021/08/29 06:51:46;;;;;;;0.90;0.83;;;15.50;99.90;;;;;;5048070;28;20491;-78
2021/08/29 06:54:16;;;;;;;0.70;0.70;;;15.50;1.00;;;;;;5046824;28;20479;-80
2021/08/29 06:56:44;;;;;;;0.70;0.70;;;15.50;99.90;;;;;;5050159;28;20459;-82
2021/08/29 06:59:12;;;;;;;0.73;0.70;;;15.70;1.00;;;;;;5047092;28;20458;-78
2021/08/29 07:01:40;;;;;;;0.60;0.60;;;15.80;99.90;;;;;;5047850;28;21116;-79
2021/08/29 07:04:09;;;;;;;0.60;0.60;;;15.80;99.90;;;;;;5036188;28;20468;-78
2021/08/29 07:06:37;;;;;;;0.80;0.80;;;15.90;99.90;;;;;;5044479;28;20525;-79
2021/08/29 07:09:05;;;;;;;0.90;0.80;;;15.90;19.70;;;;;;5062906;28;20447;-79
2021/08/29 07:11:35;;;;;;;0.60;0.60;;;16.00;1.00;;;;;;5048359;28;20523;-78
2021/08/29 07:14:03;;;;;;;0.80;0.80;;;16.00;1.00;;;;;;5040411;28;20522;-80
2021/08/29 07:16:31;;;;;;;0.80;0.80;;;16.00;1.00;;;;;;5048031;28;20527;-78
2021/08/29 07:18:59;;;;;;;0.60;0.60;;;16.00;1.00;;;;;;5041346;28;20878;-79
2021/08/29 07:21:27;;;;;;;0.70;0.70;;;16.00;51.80;;;;;;5049054;28;20459;-82
2021/08/29 07:23:55;;;;;;;0.80;0.73;;;16.00;1.00;;;;;;5049224;28;20484;-80
2021/08/29 07:26:23;;;;;;;1.00;0.70;;;15.90;99.90;;;;;;5040629;28;20451;-80
2021/08/29 07:28:53;;;;;;;0.80;0.80;;;16.00;2.90;;;;;;5030983;28;20448;-81
2021/08/29 07:31:21;;;;;;;0.60;0.60;;;16.10;1.00;;;;;;5046870;28;20488;-80
2021/08/29 07:33:49;;;;;;;0.60;0.60;;;16.00;1.00;;;;;;5051061;28;20998;-84
2021/08/29 07:36:17;;;;;;;0.80;0.80;;;15.90;1.00;;;;;;5053587;28;20513;-84
2021/08/29 07:38:45;;;;;;;0.60;0.60;;;16.00;99.90;;;;;;5048690;28;20454;-83
2021/08/29 07:41:14;;;;;;;0.60;0.60;;;16.10;1.00;;;;;;5051205;28;20978;-84
2021/08/29 07:43:42;;;;;;;0.60;0.60;;;16.20;44.20;;;;;;5051447;28;20781;-83
2021/08/29 07:46:12;;;;;;;0.60;0.60;;;16.20;1.00;;;;;;5047874;28;20454;-84
2021/08/29 07:48:40;;;;;;;1.40;0.90;;;16.30;1.00;;;;;;5044426;28;20975;-83
2021/08/29 07:51:08;;;;;;;0.60;0.60;;;16.30;44.40;;;;;;5052632;28;20550;-84
2021/08/29 07:53:36;;;;;;;0.60;0.60;;;16.40;1.00;;;;;;5053004;28;21018;-84
2021/08/29 07:56:05;;;;;;;0.60;0.60;;;16.40;99.90;;;;;;5052879;28;20860;-84
2021/08/29 07:58:33;;;;;;;0.83;0.60;;;16.50;99.90;;;;;;5054580;28;20441;-84
2021/08/29 08:01:01;;;;;;;0.50;0.50;;;16.50;1.00;;;;;;5055082;28;20901;-84
2021/08/29 08:03:31;;;;;;;0.77;0.60;;;16.50;99.90;;;;;;5056325;28;20519;-84
2021/08/29 08:05:59;;;;;;;0.83;0.50;;;16.60;99.90;;;;;;5056588;28;20536;-82
2021/08/29 08:08:27;;;;;;;0.60;0.60;;;16.60;99.90;;;;;;5056949;28;20950;-84
2021/08/29 08:10:56;;;;;;;0.90;0.60;;;16.60;99.90;;;;;;5053746;28;20463;-84
2021/08/29 08:13:24;;;;;;;0.70;0.70;;;16.60;99.90;;;;;;5055867;28;20471;-83
2021/08/29 08:15:52;;;;;;;1.20;0.70;;;16.60;56.10;;;;;;5041201;28;20458;-84
2021/08/29 08:18:20;;;;;;;0.70;0.70;;;16.60;99.90;;;;;;5053554;28;20508;-84
2021/08/29 08:20:49;;;;;;;1.07;1.00;;;16.60;99.90;;;;;;5054460;28;20451;-84
2021/08/29 08:23:18;;;;;;;0.80;0.80;;;16.60;99.90;;;;;;5055209;28;20490;-84
2021/08/29 08:25:46;;;;;;;1.93;0.80;;;16.70;1.00;;;;;;5054953;28;20478;-84
2021/08/29 08:28:14;;;;;;;1.37;0.90;;;16.70;1.00;;;;;;5055274;28;20456;-84
2021/08/29 08:30:42;;;;;;;0.80;0.80;;;16.70;1.00;;;;;;5055992;28;20451;-84
2021/08/29 08:33:10;;;;;;;0.90;0.80;;;16.60;1.00;;;;;;5055383;28;20518;-83
2021/08/29 08:35:39;;;;;;;1.27;1.17;;;16.60;1.00;;;;;;5054456;28;20464;-83
2021/08/29 08:38:09;;;;;;;0.90;0.80;;;16.60;1.00;;;;;;5055549;28;20497;-82
2021/08/29 08:40:41;;;;;;;0.90;0.80;;;16.70;1.00;;;;;;5052934;28;20469;-85
2021/08/29 08:43:10;;;;;;;0.80;0.80;;;16.70;1.00;;;;;;5055078;28;20964;-84
2021/08/29 08:45:39;;;;;;;1.10;0.97;;;16.70;1.00;;;;;;5054667;28;20476;-84
2021/08/29 08:48:10;;;;;;;2.70;1.00;;;16.70;1.00;;;;;;5055837;28;20440;-84
2021/08/29 08:50:39;;;;;;;0.80;0.80;;;16.70;37.20;;;;;;5055233;28;20456;-83
2021/08/29 08:53:09;;;;;;;0.90;0.90;;;16.80;1.00;;;;;;5055222;28;20469;-84
2021/08/29 08:55:40;;;;;;;0.87;0.87;;;16.80;1.80;;;;;;5055096;28;20456;-84
2021/08/29 08:58:10;;;;;;;0.80;0.80;;;16.80;90.60;;;;;;5054094;28;20518;-82
2021/08/29 09:00:38;;;;;;;0.90;0.90;;;16.80;99.90;;;;;;5054972;28;20943;-84
2021/08/29 09:03:07;;;;;;;0.80;0.80;;;16.80;41.80;;;;;;5055687;28;20424;-83
2021/08/29 09:05:38;;;;;;;1.43;1.33;;;16.90;21.30;;;;;;5055267;28;20461;-82
2021/08/29 09:08:06;;;;;;;0.90;0.90;;;16.90;99.90;;;;;;5054881;28;20859;-82
2021/08/29 09:10:37;;;;;;;0.93;0.80;;;16.90;99.90;;;;;;5053666;28;20452;-84
2021/08/29 09:13:07;;;;;;;2.10;1.00;;;17.00;99.90;;;;;;5055916;28;20460;-84
2021/08/29 09:15:35;;;;;;;1.20;1.10;;;17.00;99.90;;;;;;5054857;28;20818;-83
2021/08/29 09:18:04;;;;;;;2.43;1.40;;;17.00;99.90;;;;;;5055668;28;20455;-84
2021/08/29 09:20:36;;;;;;;1.40;1.30;;;17.00;1.00;;;;;;5054153;28;20445;-84
2021/08/29 09:23:06;;;;;;;2.00;1.43;;;16.90;19.70;;;;;;5053851;28;20976;-84
2021/08/29 09:25:41;;;;;;;1.40;1.10;;;16.90;99.90;;;;;;5054410;28;20477;-82
2021/08/29 09:28:11;;;;;;;1.60;1.50;;;16.90;49.70;;;;;;5055294;28;20449;-84
2021/08/29 09:30:42;;;;;;;1.70;1.60;;;16.90;1.00;;;;;;5051242;28;20849;-84
2021/08/29 09:33:11;;;;;;;1.67;1.53;;;16.90;99.90;;;;;;5053206;28;20585;-84
2021/08/29 09:35:40;;;;;;;3.37;2.77;;;16.90;76.40;;;;;;5053324;28;20477;-84
2021/08/29 09:38:15;;;;;;;3.03;1.80;;;16.90;1.00;;;;;;5053193;28;20502;-81
2021/08/29 09:40:45;;;;;;;2.00;1.80;;;17.00;1.00;;;;;;5053273;28;20803;-83
2021/08/29 09:43:15;;;;;;;3.60;2.90;;;16.90;1.00;;;;;;5054502;28;20830;-84
2021/08/29 09:45:45;;;;;;;2.40;2.20;;;17.00;96.40;;;;;;5053066;28;20473;-84
2021/08/29 09:48:15;;;;;;;2.30;2.10;;;17.00;42.10;;;;;;5053006;28;20430;-84
2021/08/29 09:50:45;;;;;;;2.63;2.20;;;17.00;1.00;;;;;;5053475;28;20551;-84
2021/08/29 09:53:15;;;;;;;2.30;2.20;;;17.00;6.50;;;;;;5053717;28;20460;-84
2021/08/29 09:55:48;;;;;;;2.20;1.90;;;17.00;76.10;;;;;;5052469;28;20845;-84
2021/08/29 09:58:27;;;;;;;2.40;2.20;;;17.00;1.00;;;;;;5054373;28;20496;-82
2021/08/29 10:01:07;;;;;;;2.90;2.60;;;17.00;1.00;;;;;;5046049;28;20954;-85
2021/08/29 10:03:37;;;;;;;2.00;1.90;;;17.00;1.00;;;;;;5047798;28;20453;-83
2021/08/29 10:06:16;;;;;;;2.60;2.03;;;17.00;1.00;;;;;;5052444;28;20448;-84
2021/08/29 10:08:45;;;;;;;3.17;1.80;;;17.00;1.00;;;;;;5037450;28;20995;-84
2021/08/29 10:11:15;;;;;;;3.57;3.27;;;17.00;99.90;;;;;;5050264;28;20444;-82
2021/08/29 10:13:44;;;;;;;2.23;2.03;;;17.00;1.00;;;;;;5051902;28;21017;-83
2021/08/29 10:16:13;;;;;;;2.73;2.50;;;17.00;1.00;;;;;;5051637;28;20455;-84
2021/08/29 10:18:43;;;;;;;2.40;2.00;;;17.00;1.00;;;;;;5038488;28;20490;-84
2021/08/29 10:21:13;;;;;;;2.60;2.40;;;17.00;1.00;;;;;;5042278;28;20457;-85
2021/08/29 10:23:43;;;;;;;2.67;2.47;;;17.10;1.00;;;;;;5052862;28;20457;-83
2021/08/29 10:26:13;;;;;;;2.77;2.57;;;17.10;99.90;;;;;;5045576;28;20470;-80
2021/08/29 10:28:48;;;;;;;3.37;2.80;;;17.20;99.90;;;;;;5038225;28;20464;-80
2021/08/29 10:31:19;;;;;;;3.13;2.30;;;17.20;99.90;;;;;;5047928;28;20463;-79
2021/08/29 10:33:48;;;;;;;3.20;2.40;;;17.30;99.90;;;;;;5046968;28;20593;-78
2021/08/29 10:36:17;;;;;;;2.43;2.23;;;17.40;99.90;;;;;;5047248;28;21167;-80
2021/08/29 10:38:47;;;;;;;2.57;2.37;;;17.40;75.00;;;;;;5046409;28;20450;-78
2021/08/29 10:41:20;;;;;;;2.53;2.33;;;17.40;1.00;;;;;;5047886;28;20468;-79
2021/08/29 10:43:50;;;;;;;2.70;2.00;;;17.50;1.00;;;;;;5047344;28;20474;-78
2021/08/29 10:46:19;;;;;;;2.43;2.20;;;17.50;1.00;;;;;;5048233;28;20523;-79
2021/08/29 10:48:50;;;;;;;3.47;2.30;;;17.50;1.00;;;;;;5046167;28;20551;-77
2021/08/29 10:51:20;;;;;;;1.90;1.77;;;17.60;99.90;;;;;;5047105;28;20579;-79
2021/08/29 10:53:51;;;;;;;2.30;2.00;;;17.60;53.50;;;;;;5045930;28;20475;-78
2021/08/29 10:56:32;;;;;;;2.80;2.30;;;17.60;99.90;;;;;;5045692;28;20456;-80
2021/08/29 10:59:21;;;;;;;8.10;4.07;;;17.60;1.00;;;;;;5036397;28;20459;-79
2021/08/29 11:01:50;;;;;;;1.90;1.77;;;17.60;5.90;;;;;;5038023;28;20464;-79
2021/08/29 11:04:45;;;;;;;2.80;2.60;;;17.60;1.00;;;;;;5045236;28;20461;-80
2021/08/29 11:07:51;;;;;;;2.70;2.50;;;17.70;99.90;;;;;;5038453;28;20458;-78
2021/08/29 11:10:43;;;;;;;1.90;1.80;;;17.70;1.00;;;;;;5039853;28;20460;-78
2021/08/29 11:13:45;;;;;;;1.87;1.73;;;17.80;1.00;;;;;;5046734;28;20476;-79
2021/08/29 11:16:32;;;;;;;3.17;2.97;;;17.80;99.90;;;;;;5045031;28;20979;-81
2021/08/29 11:19:14;;;;;;;1.90;1.80;;;17.70;1.00;;;;;;5031655;28;20486;-79
2021/08/29 11:22:15;;;;;;;2.00;1.90;;;17.70;1.00;;;;;;5044054;28;20447;-78
2021/08/29 11:24:51;;;;;;;1.90;1.80;;;17.70;99.90;;;;;;5046839;28;20465;-78
2021/08/29 11:27:56;;;;;;;1.97;1.50;;;17.70;99.90;;;;;;5047886;28;20448;-75
2021/08/29 11:30:27;;;;;;;1.60;1.50;;;17.70;99.90;;;;;;5041975;28;20477;-80
2021/08/29 11:33:02;;;;;;;1.90;1.80;;;17.70;99.90;;;;;;5047868;28;20460;-78
2021/08/29 11:35:32;;;;;;;2.60;2.27;;;17.80;1.00;;;;;;5044440;28;20472;-79
2021/08/29 11:38:10;;;;;;;2.57;2.17;;;17.70;1.00;;;;;;5046476;28;20548;-81
2021/08/29 11:40:50;;;;;;;2.37;2.17;;;17.80;99.90;;;;;;5038965;28;20485;-82
2021/08/29 11:43:33;;;;;;;2.17;2.07;;;17.80;99.90;;;;;;5042949;28;20515;-78
2021/08/29 11:46:08;;;;;;;2.20;2.10;;;17.80;99.90;;;;;;5042927;28;20459;-80
2021/08/29 11:48:47;;;;;;;1.70;1.60;;;17.80;1.00;;;;;;5043810;28;20471;-81
2021/08/29 11:51:22;;;;;;;1.67;1.57;;;17.80;99.90;;;;;;5042047;28;20969;-80
2021/08/29 11:53:51;;;;;;;1.40;1.30;;;17.80;1.00;;;;;;5046028;28;21062;-77
2021/08/29 11:56:22;;;;;;;1.87;1.73;;;17.80;1.00;;;;;;5047037;28;20459;-84
2021/08/29 11:58:50;;;;;;;1.70;1.47;;;17.80;1.00;;;;;;5047261;28;20538;-83
2021/08/29 12:01:19;;;;;;;1.73;1.63;;;17.70;99.90;;;;;;5038756;28;20476;-82
2021/08/29 12:03:49;;;;;;;1.53;1.40;;;17.70;1.00;;;;;;5055997;28;20549;-81
2021/08/29 12:06:26;;;;;;;2.20;1.83;;;17.60;99.90;;;;;;5048029;28;20463;-81
2021/08/29 12:09:18;;;;;;;2.17;1.73;;;17.60;99.90;;;;;;5053238;28;20481;-80
2021/08/29 12:11:46;;;;;;;1.90;1.80;;;17.60;1.00;;;;;;5053386;28;20472;-83
2021/08/29 12:14:16;;;;;;;2.07;1.97;;;17.60;1.00;;;;;;5051484;28;20474;-82
2021/08/29 12:16:47;;;;;;;2.47;1.60;;;17.60;85.10;;;;;;5044134;28;20456;-82
2021/08/29 12:19:20;;;;;;;1.70;1.60;;;17.60;1.00;;;;;;5049137;28;20525;-83
2021/08/29 12:21:49;;;;;;;1.97;1.87;;;17.70;1.00;;;;;;5052423;28;20446;-79
2021/08/29 12:24:25;;;;;;;1.83;1.73;;;17.60;1.00;;;;;;5051332;28;20849;-83
2021/08/29 12:27:01;;;;;;;1.60;1.50;;;17.70;99.90;;;;;;5052733;28;20540;-81
2021/08/29 12:29:30;;;;;;;1.50;1.40;;;17.70;99.90;;;;;;5049929;28;20460;-83
2021/08/29 12:32:10;;;;;;;2.33;2.13;;;17.70;99.90;;;;;;5052191;28;20453;-80
2021/08/29 12:34:40;;;;;;;2.10;1.77;;;17.80;58.70;;;;;;5050109;28;20482;-83
2021/08/29 12:37:11;;;;;;;2.43;2.13;;;17.70;99.90;;;;;;5050748;28;20533;-82
2021/08/29 12:39:40;;;;;;;1.63;1.43;;;17.70;1.00;;;;;;5040667;28;20457;-79
2021/08/29 12:42:15;;;;;;;1.40;1.30;;;17.70;1.00;;;;;;5045616;28;20472;-79
2021/08/29 12:44:43;;;;;;;1.20;1.10;;;17.70;1.00;;;;;;5042881;28;20469;-79
2021/08/29 12:47:12;;;;;;;1.30;1.20;;;17.70;99.90;;;;;;5041229;28;20501;-78
2021/08/29 12:49:42;;;;;;;1.33;1.23;;;17.70;99.90;;;;;;5047279;28;20464;-79
2021/08/29 12:52:16;;;;;;;1.30;1.20;;;17.80;1.00;;;;;;5048141;28;20529;-78
2021/08/29 12:54:45;;;;;;;1.20;1.10;;;17.70;1.00;;;;;;5059335;28;20511;-79
2021/08/29 12:57:13;;;;;;;1.43;1.33;;;17.70;99.90;;;;;;5047718;28;20456;-80
2021/08/29 12:59:42;;;;;;;1.40;1.30;;;17.70;1.00;;;;;;5047568;28;20453;-78
2021/08/29 13:02:18;;;;;;;1.30;1.20;;;17.70;1.00;;;;;;5044442;28;20449;-80
2021/08/29 13:04:49;;;;;;;2.00;1.43;;;17.70;99.90;;;;;;5049380;28;20473;-80
2021/08/29 13:07:19;;;;;;;1.77;1.50;;;17.70;1.00;;;;;;5050056;28;20465;-80